createdAt,value
2019-01-23T00:01:39.086Z,24.83
2019-01-23T00:04:09.523Z,24.43
2019-01-23T00:06:40.990Z,23.83
2019-01-23T00:09:11.100Z,25.43
2019-01-23T00:11:41.224Z,21.57
2019-01-23T00:14:12.447Z,22.62
2019-01-23T00:16:42.811Z,24.32
2019-01-23T00:19:13.541Z,22.80
2019-01-23T00:21:43.937Z,23.70
2019-01-23T00:24:14.160Z,22.87
2019-01-23T00:26:44.381Z,23.93
2019-01-23T00:29:14.861Z,21.40
2019-01-23T00:31:44.960Z,25.73
2019-01-23T00:34:15.118Z,25.20
2019-01-23T00:36:45.211Z,27.90
2019-01-23T00:39:15.607Z,25.00
2019-01-23T00:41:45.888Z,23.80
2019-01-23T00:44:15.985Z,26.03
2019-01-23T00:46:46.132Z,24.07
2019-01-23T00:49:16.217Z,23.03
2019-01-23T00:51:46.631Z,25.57
2019-01-23T00:54:16.995Z,27.07
2019-01-23T00:56:47.052Z,26.07
2019-01-23T00:59:17.196Z,24.10
2019-01-23T01:01:47.588Z,27.47
2019-01-23T01:04:17.943Z,27.90
2019-01-23T01:06:48.011Z,27.70
2019-01-23T01:09:18.151Z,28.33
2019-01-23T01:11:48.305Z,24.73
2019-01-23T01:14:18.473Z,27.80
2019-01-23T01:16:48.835Z,28.07
2019-01-23T01:19:19.040Z,26.57
2019-01-23T01:21:49.165Z,27.67
2019-01-23T01:24:19.256Z,28.47
2019-01-23T01:26:49.326Z,25.57
2019-01-23T01:29:20.127Z,26.93
2019-01-23T01:31:50.248Z,29.43
2019-01-23T01:34:20.545Z,26.73
2019-01-23T01:36:51.016Z,27.55
2019-01-23T01:39:21.144Z,26.97
2019-01-23T01:41:53.113Z,24.97
2019-01-23T01:44:23.332Z,27.27
2019-01-23T01:46:53.592Z,25.00
2019-01-23T01:49:23.995Z,27.75
2019-01-23T01:51:54.190Z,27.37
2019-01-23T01:54:24.323Z,26.97
2019-01-23T01:56:54.477Z,23.97
2019-01-23T01:59:24.527Z,25.17
2019-01-23T02:01:54.745Z,26.30
2019-01-23T02:04:26.103Z,23.62
2019-01-23T02:06:56.295Z,27.07
2019-01-23T02:09:26.604Z,26.63
2019-01-23T02:11:56.738Z,26.90
2019-01-23T02:14:27.212Z,26.12
2019-01-23T02:16:57.384Z,26.80
2019-01-23T02:19:27.532Z,27.50
2019-01-23T02:21:57.744Z,28.50
2019-01-23T02:24:28.180Z,29.27
2019-01-23T02:26:58.442Z,29.27
2019-01-23T02:29:28.609Z,21.57
2019-01-23T02:31:58.748Z,27.87
2019-01-23T02:34:29.272Z,27.80
2019-01-23T02:36:59.644Z,28.53
2019-01-23T02:39:29.839Z,27.63
2019-01-23T02:42:00.205Z,28.83
2019-01-23T02:44:30.536Z,25.47
2019-01-23T02:47:00.646Z,27.13
2019-01-23T02:49:30.711Z,29.03
2019-01-23T02:52:00.822Z,27.67
2019-01-23T02:54:31.260Z,26.95
2019-01-23T02:57:01.463Z,25.73
2019-01-23T02:59:31.585Z,26.50
2019-01-23T03:02:01.747Z,24.93
2019-01-23T03:04:31.924Z,26.80
2019-01-23T03:07:02.353Z,24.90
2019-01-23T03:09:34.828Z,24.93
2019-01-23T03:12:04.952Z,25.73
2019-01-23T03:14:35.384Z,24.35
2019-01-23T03:17:05.479Z,28.73
2019-01-23T03:19:35.972Z,29.93
2019-01-23T03:22:06.433Z,26.07
2019-01-23T03:24:36.499Z,26.53
2019-01-23T03:27:06.671Z,26.83
2019-01-23T03:29:36.807Z,29.87
2019-01-23T03:32:06.892Z,29.70
2019-01-23T03:34:37.038Z,24.90
2019-01-23T03:37:07.465Z,28.38
2019-01-23T03:39:37.903Z,28.80
2019-01-23T03:42:08.140Z,28.37
2019-01-23T03:44:38.483Z,27.57
2019-01-23T03:47:08.835Z,29.40
2019-01-23T03:49:38.922Z,29.60
2019-01-23T03:52:09.070Z,29.43
2019-01-23T03:54:39.507Z,26.68
2019-01-23T03:57:09.823Z,26.40
2019-01-23T03:59:39.976Z,27.43
2019-01-23T04:02:10.170Z,28.67
2019-01-23T04:04:40.666Z,24.80
2019-01-23T04:07:10.775Z,25.30
2019-01-23T04:09:40.932Z,28.03
2019-01-23T04:12:11.013Z,22.87
2019-01-23T04:14:41.103Z,24.80
2019-01-23T04:17:11.182Z,25.83
2019-01-23T04:19:41.292Z,27.10
2019-01-23T04:22:11.797Z,20.93
2019-01-23T04:24:41.928Z,25.23
2019-01-23T04:27:12.078Z,28.50
2019-01-23T04:29:42.241Z,26.40
2019-01-23T04:32:12.332Z,28.57
2019-01-23T04:34:42.703Z,26.52
2019-01-23T04:37:12.864Z,28.20
2019-01-23T04:39:43.113Z,27.83
2019-01-23T04:42:13.305Z,26.97
2019-01-23T04:44:44.429Z,26.60
2019-01-23T04:47:14.789Z,28.30
2019-01-23T04:49:45.092Z,27.90
2019-01-23T04:52:35.715Z,28.87
2019-01-23T04:55:06.263Z,26.10
2019-01-23T04:57:36.354Z,25.63
2019-01-23T05:00:07.215Z,28.27
2019-01-23T05:02:37.302Z,26.53
2019-01-23T05:05:08.047Z,25.97
2019-01-23T05:07:38.314Z,29.60
2019-01-23T05:10:08.639Z,26.73
2019-01-23T05:12:39.085Z,26.37
2019-01-23T05:15:09.248Z,26.63
2019-01-23T05:17:39.580Z,25.63
2019-01-23T05:20:10.643Z,26.10
2019-01-23T05:22:40.962Z,25.77
2019-01-23T05:25:11.796Z,25.27
2019-01-23T05:27:42.144Z,25.30
2019-01-23T05:30:18.230Z,25.00
2019-01-23T05:32:48.351Z,25.47
2019-01-23T05:35:19.720Z,24.20
2019-01-23T05:37:50.242Z,22.83
2019-01-23T05:40:20.369Z,24.73
2019-01-23T05:42:50.454Z,27.77
2019-01-23T05:45:20.463Z,25.90
2019-01-23T05:47:50.539Z,23.43
2019-01-23T05:50:20.715Z,25.97
2019-01-23T05:52:51.155Z,27.30
2019-01-23T05:55:21.286Z,28.30
2019-01-23T05:57:51.391Z,23.80
2019-01-23T06:00:22.531Z,27.60
2019-01-23T06:02:52.725Z,27.03
2019-01-23T06:05:23.246Z,27.70
2019-01-23T06:07:54.291Z,28.27
2019-01-23T06:10:24.413Z,26.80
2019-01-23T06:12:54.605Z,28.47
2019-01-23T06:15:24.754Z,28.13
2019-01-23T06:17:55.190Z,28.85
2019-01-23T06:20:25.283Z,27.73
2019-01-23T06:22:55.478Z,29.30
2019-01-23T06:25:25.682Z,21.60
2019-01-23T06:27:56.199Z,27.55
2019-01-23T06:30:30.696Z,29.70
2019-01-23T06:33:02.986Z,24.10
2019-01-23T06:35:33.506Z,24.87
2019-01-23T06:38:03.658Z,27.10
2019-01-23T06:40:33.859Z,25.43
2019-01-23T06:43:04.398Z,27.55
2019-01-23T06:45:34.521Z,28.47
2019-01-23T06:48:05.131Z,23.10
2019-01-23T06:50:35.583Z,27.93
2019-01-23T06:53:05.755Z,25.20
2019-01-23T06:55:35.994Z,25.37
2019-01-23T06:58:06.488Z,23.10
2019-01-23T07:00:36.723Z,27.07
2019-01-23T07:03:06.864Z,27.20
2019-01-23T07:05:37.024Z,26.90
2019-01-23T07:08:07.451Z,27.13
2019-01-23T07:10:37.585Z,28.17
2019-01-23T07:13:07.687Z,25.67
2019-01-23T07:15:41.010Z,26.67
2019-01-23T07:18:11.463Z,28.73
2019-01-23T07:20:41.673Z,23.90
2019-01-23T07:23:11.862Z,28.83
2019-01-23T07:25:42.043Z,28.70
2019-01-23T07:28:12.608Z,28.15
2019-01-23T07:30:43.299Z,30.67
2019-01-23T07:33:13.650Z,26.57
2019-01-23T07:35:43.825Z,24.97
2019-01-23T07:38:13.907Z,29.07
2019-01-23T07:40:44.043Z,26.40
2019-01-23T07:43:14.492Z,23.92
2019-01-23T07:45:44.761Z,24.47
2019-01-23T07:48:14.844Z,27.47
2019-01-23T07:50:44.936Z,26.00
2019-01-23T07:53:15.215Z,25.70
2019-01-23T07:55:47.451Z,25.60
2019-01-23T07:58:17.776Z,25.97
2019-01-23T08:00:47.963Z,27.50
2019-01-23T08:03:18.015Z,23.63
2019-01-23T08:05:48.110Z,23.70
2019-01-23T08:08:18.260Z,25.07
2019-01-23T08:10:48.679Z,27.13
2019-01-23T08:13:18.887Z,28.00
2019-01-23T08:15:49.071Z,21.20
2019-01-23T08:18:19.223Z,23.93
2019-01-23T08:20:49.787Z,24.70
2019-01-23T08:23:20.813Z,26.40
2019-01-23T08:25:50.884Z,24.80
2019-01-23T08:28:20.948Z,26.43
2019-01-23T08:30:52.941Z,21.63
2019-01-23T08:33:23.099Z,23.37
2019-01-23T08:35:53.256Z,24.27
2019-01-23T08:38:23.359Z,24.37
2019-01-23T08:40:53.779Z,23.30
2019-01-23T08:43:23.887Z,24.07
2019-01-23T08:45:54.036Z,24.90
2019-01-23T08:48:24.128Z,23.67
2019-01-23T08:50:54.200Z,27.20
2019-01-23T08:53:24.386Z,21.97
2019-01-23T08:55:54.850Z,24.85
2019-01-23T08:58:24.947Z,26.37
2019-01-23T09:00:55.007Z,20.30
2019-01-23T09:03:25.072Z,24.10
2019-01-23T09:05:55.116Z,25.47
2019-01-23T09:08:25.287Z,23.47
2019-01-23T09:10:55.421Z,22.47
2019-01-23T09:13:25.755Z,21.90
2019-01-23T09:15:55.989Z,21.00
2019-01-23T09:18:26.131Z,21.57
2019-01-23T09:20:56.198Z,23.60
2019-01-23T09:23:26.437Z,21.70
2019-01-23T09:25:56.777Z,20.92
2019-01-23T09:28:28.287Z,20.37
2019-01-23T09:31:30.378Z,19.87
2019-01-23T09:34:15.543Z,19.80
2019-01-23T09:37:14.627Z,20.30
2019-01-23T09:40:32.012Z,19.40
2019-01-23T09:43:50.206Z,18.50
2019-01-23T09:47:09.470Z,22.37
2019-01-23T09:49:56.400Z,18.47
2019-01-23T09:53:09.432Z,20.97
2019-01-23T09:55:39.620Z,22.47
2019-01-23T09:58:11.107Z,22.52
2019-01-23T10:00:41.333Z,23.00
2019-01-23T10:03:11.432Z,20.57
2019-01-23T10:05:41.505Z,22.80
2019-01-23T10:08:13.828Z,22.90
2019-01-23T10:10:44.279Z,20.97
2019-01-23T10:13:14.514Z,21.27
2019-01-23T10:16:12.299Z,22.50
2019-01-23T10:18:42.591Z,22.30
2019-01-23T10:21:12.755Z,20.20
2019-01-23T10:23:43.125Z,20.55
2019-01-23T10:26:13.332Z,21.27
2019-01-23T10:28:43.482Z,19.97
2019-01-23T10:31:13.744Z,23.00
2019-01-23T10:33:44.132Z,20.02
2019-01-23T10:36:14.365Z,21.00
2019-01-23T10:38:44.451Z,21.67
2019-01-23T10:41:14.579Z,20.00
2019-01-23T10:43:44.798Z,19.00
2019-01-23T10:46:15.259Z,17.55
2019-01-23T10:48:45.442Z,19.20
2019-01-23T10:51:15.518Z,18.47
2019-01-23T10:53:45.602Z,18.50
2019-01-23T10:56:15.873Z,20.57
2019-01-23T10:58:46.506Z,18.48
2019-01-23T11:01:16.675Z,19.87
2019-01-23T11:03:46.753Z,22.17
2019-01-23T11:06:16.984Z,17.57
2019-01-23T11:08:47.429Z,18.85
2019-01-23T11:11:17.868Z,20.20
2019-01-23T11:13:48.072Z,19.30
2019-01-23T11:16:18.453Z,19.07
2019-01-23T11:18:48.603Z,17.27
2019-01-23T11:21:18.713Z,18.93
2019-01-23T11:23:48.886Z,19.67
2019-01-23T11:26:19.236Z,16.80
2019-01-23T11:28:49.572Z,19.80
2019-01-23T11:31:20.478Z,21.67
2019-01-23T11:33:50.784Z,18.67
2019-01-23T11:36:20.898Z,20.67
2019-01-23T11:38:52.586Z,19.40
2019-01-23T11:41:22.874Z,19.73
2019-01-23T11:43:53.078Z,19.57
2019-01-23T11:46:23.495Z,19.27
2019-01-23T11:48:53.627Z,19.30
2019-01-23T11:51:23.734Z,20.87
2019-01-23T11:53:53.864Z,21.20
2019-01-23T11:56:24.941Z,20.17
2019-01-23T11:58:55.093Z,20.10
2019-01-23T12:01:27.689Z,21.80
2019-01-23T12:03:58.635Z,19.30
2019-01-23T12:06:29.070Z,17.77
2019-01-23T12:08:59.239Z,19.07
2019-01-23T12:11:29.654Z,17.50
2019-01-23T12:13:59.914Z,19.40
2019-01-23T12:16:30.077Z,17.60
2019-01-23T12:19:00.296Z,18.97
2019-01-23T12:21:30.920Z,18.53
2019-01-23T12:24:01.095Z,17.63
2019-01-23T12:26:31.240Z,19.87
2019-01-23T12:29:01.640Z,21.05
2019-01-23T12:31:35.144Z,20.07
2019-01-23T12:34:03.860Z,20.83
2019-01-23T12:36:33.967Z,18.57
2019-01-23T12:39:07.136Z,20.10
2019-01-23T12:41:37.306Z,21.00
2019-01-23T12:44:07.905Z,23.47
2019-01-23T12:46:38.330Z,20.10
2019-01-23T12:49:08.763Z,21.55
2019-01-23T12:51:38.980Z,20.17
2019-01-23T12:54:09.109Z,21.33
2019-01-23T12:56:39.395Z,20.67
2019-01-23T12:59:09.731Z,20.45
2019-01-23T13:01:42.104Z,19.50
2019-01-23T13:04:12.854Z,20.23
2019-01-23T13:06:43.260Z,20.47
2019-01-23T13:09:14.940Z,19.17
2019-01-23T13:11:45.159Z,21.10
2019-01-23T13:14:15.343Z,16.80
2019-01-23T13:16:45.605Z,19.07
2019-01-23T13:19:15.908Z,20.00
2019-01-23T13:21:46.142Z,18.17
2019-01-23T13:24:16.306Z,18.63
2019-01-23T13:26:46.623Z,19.10
2019-01-23T13:29:18.246Z,18.20
2019-01-23T13:31:49.180Z,19.23
2019-01-23T13:34:19.654Z,20.83
2019-01-23T13:36:49.985Z,20.83
2019-01-23T13:39:20.525Z,19.83
2019-01-23T13:41:50.562Z,21.07
2019-01-23T13:44:21.019Z,19.92
2019-01-23T13:46:51.209Z,16.10
2019-01-23T13:49:21.368Z,20.37
2019-01-23T13:51:51.536Z,19.47
2019-01-23T13:54:21.721Z,19.90
2019-01-23T13:56:52.220Z,19.00
2019-01-23T13:59:22.332Z,19.90
2019-01-23T14:01:56.435Z,20.23
2019-01-23T14:04:24.426Z,20.63
2019-01-23T14:06:54.561Z,18.10
2019-01-23T14:09:24.669Z,20.70
2019-01-23T14:11:55.018Z,20.08
2019-01-23T14:14:25.345Z,17.70
2019-01-23T14:16:55.862Z,21.20
2019-01-23T14:19:26.243Z,21.03
2019-01-23T14:21:56.459Z,20.73
2019-01-23T14:24:26.533Z,18.80
2019-01-23T14:26:56.636Z,20.13
2019-01-23T14:29:26.734Z,19.43
2019-01-23T14:32:03.050Z,19.37
2019-01-23T14:34:29.630Z,21.62
2019-01-23T14:36:59.813Z,18.60
2019-01-23T14:39:30.246Z,20.95
2019-01-23T14:42:00.434Z,21.20
2019-01-23T14:44:30.595Z,19.23
2019-01-23T14:47:00.759Z,17.50
2019-01-23T14:49:30.870Z,18.40
2019-01-23T14:52:01.332Z,19.48
2019-01-23T14:54:31.624Z,18.60
2019-01-23T14:57:01.792Z,18.23
2019-01-23T14:59:31.888Z,18.43
2019-01-23T15:02:02.284Z,20.70
2019-01-23T15:04:32.662Z,20.90
2019-01-23T15:07:02.776Z,21.23
2019-01-23T15:09:32.967Z,19.40
2019-01-23T15:12:03.331Z,18.32
2019-01-23T15:14:33.666Z,18.50
2019-01-23T15:17:04.245Z,19.40
2019-01-23T15:19:34.729Z,18.20
2019-01-23T15:22:04.959Z,17.57
2019-01-23T15:24:35.396Z,17.45
2019-01-23T15:27:05.483Z,18.00
2019-01-23T15:29:35.663Z,18.50
2019-01-23T15:32:05.830Z,18.40
2019-01-23T15:34:35.958Z,24.33
2019-01-23T15:37:06.059Z,24.53
2019-01-23T15:39:36.424Z,23.05
2019-01-23T15:42:06.673Z,26.57
2019-01-23T15:44:36.844Z,28.83
2019-01-23T15:47:06.948Z,23.77
2019-01-23T15:49:37.037Z,25.23
2019-01-23T15:52:07.430Z,23.25
2019-01-23T15:54:37.727Z,24.77
2019-01-23T15:57:07.822Z,25.77
2019-01-23T15:59:37.885Z,28.07
2019-01-23T16:02:08.633Z,26.50
2019-01-23T16:04:39.047Z,26.63
2019-01-23T16:07:09.151Z,25.03
2019-01-23T16:09:43.485Z,26.77
2019-01-23T16:12:13.695Z,26.17
2019-01-23T16:14:44.399Z,25.63
2019-01-23T16:17:14.763Z,24.47
2019-01-23T16:19:44.847Z,25.03
2019-01-23T16:22:14.951Z,27.63
2019-01-23T16:24:45.142Z,24.30
2019-01-23T16:27:15.303Z,26.87
2019-01-23T16:29:45.871Z,28.42
2019-01-23T16:32:16.001Z,22.93
2019-01-23T16:34:46.181Z,27.90
2019-01-23T16:37:16.356Z,24.07
2019-01-23T16:39:47.016Z,26.55
2019-01-23T16:42:17.178Z,25.37
2019-01-23T16:44:47.292Z,26.67
2019-01-23T16:47:17.815Z,27.27
2019-01-23T16:49:48.044Z,24.93
2019-01-23T16:52:18.166Z,28.03
2019-01-23T16:54:48.275Z,23.67
2019-01-23T16:57:18.334Z,27.47
2019-01-23T16:59:48.859Z,23.83
2019-01-23T17:02:18.991Z,27.50
2019-01-23T17:04:49.215Z,25.10
2019-01-23T17:07:20.911Z,22.20
2019-01-23T17:09:51.095Z,27.30
2019-01-23T17:12:21.180Z,26.80
2019-01-23T17:14:51.391Z,27.00
2019-01-23T17:17:21.913Z,25.43
2019-01-23T17:19:52.099Z,24.17
2019-01-23T17:22:22.279Z,23.60
2019-01-23T17:24:52.482Z,28.03
2019-01-23T17:27:23.023Z,27.75
2019-01-23T17:29:53.628Z,25.90
2019-01-23T17:32:24.006Z,27.10
2019-01-23T17:34:54.163Z,25.20
2019-01-23T17:37:24.362Z,27.33
2019-01-23T17:39:54.667Z,23.47
2019-01-23T17:42:25.195Z,27.77
2019-01-23T17:44:55.354Z,25.33
2019-01-23T17:47:25.896Z,26.80
2019-01-23T17:49:56.150Z,30.70
2019-01-23T17:52:26.315Z,28.27
2019-01-23T17:54:56.792Z,26.13
2019-01-23T17:57:27.199Z,26.37
2019-01-23T17:59:57.284Z,29.03
2019-01-23T18:02:27.496Z,24.30
2019-01-23T18:04:57.692Z,26.30
2019-01-23T18:07:28.326Z,28.73
2019-01-23T18:09:58.967Z,26.17
2019-01-23T18:12:30.457Z,25.10
2019-01-23T18:15:00.635Z,23.80
2019-01-23T18:17:31.039Z,27.32
2019-01-23T18:20:01.291Z,25.40
2019-01-23T18:22:31.661Z,26.97
2019-01-23T18:25:02.076Z,25.00
2019-01-23T18:27:34.241Z,25.73
2019-01-23T18:30:05.560Z,25.90
2019-01-23T18:32:35.820Z,27.63
2019-01-23T18:35:33.806Z,21.77
2019-01-23T18:38:51.508Z,25.37
2019-01-23T18:42:02.243Z,25.40
2019-01-23T18:45:02.471Z,27.22
2019-01-23T18:48:04.400Z,42.30
2019-01-23T18:51:00.091Z,28.17
2019-01-23T18:53:31.039Z,31.10
2019-01-23T18:56:01.412Z,32.93
2019-01-23T18:58:32.671Z,34.40
2019-01-23T19:01:02.872Z,28.53
2019-01-23T19:03:33.291Z,26.93
2019-01-23T19:06:03.570Z,29.10
2019-01-23T19:08:33.670Z,27.60
2019-01-23T19:11:04.243Z,24.93
2019-01-23T19:13:34.660Z,27.37
2019-01-23T19:16:05.243Z,28.03
2019-01-23T19:18:37.847Z,26.67
2019-01-23T19:21:08.176Z,25.83
2019-01-23T19:23:38.703Z,29.03
2019-01-23T19:26:08.806Z,29.30
2019-01-23T19:28:38.973Z,27.10
2019-01-23T19:31:09.468Z,27.65
2019-01-23T19:33:39.991Z,30.27
2019-01-23T19:36:11.499Z,27.80
2019-01-23T19:38:41.967Z,29.83
2019-01-23T19:41:12.200Z,32.60
2019-01-23T19:43:42.734Z,30.77
2019-01-23T19:46:13.107Z,30.57
2019-01-23T19:48:44.231Z,28.05
2019-01-23T19:51:14.724Z,27.57
2019-01-23T19:53:46.001Z,33.60
2019-01-23T19:56:16.542Z,29.70
2019-01-23T19:58:46.846Z,30.00
2019-01-23T20:01:16.961Z,31.47
2019-01-23T20:03:47.155Z,32.03
2019-01-23T20:06:17.614Z,31.60
2019-01-23T20:08:47.967Z,29.20
2019-01-23T20:11:18.172Z,30.13
2019-01-23T20:13:48.615Z,32.55
2019-01-23T20:16:18.807Z,30.20
2019-01-23T20:18:49.015Z,34.43
2019-01-23T20:21:19.331Z,32.10
2019-01-23T20:23:49.678Z,33.20
2019-01-23T20:26:19.880Z,33.50
2019-01-23T20:28:50.063Z,34.93
2019-01-23T20:31:20.275Z,34.03
2019-01-23T20:33:50.824Z,31.10
2019-01-23T20:36:20.887Z,31.13
2019-01-23T20:38:51.078Z,33.27
2019-01-23T20:41:21.217Z,32.53
2019-01-23T20:43:51.465Z,33.93
2019-01-23T20:46:22.212Z,35.00
2019-01-23T20:48:52.691Z,32.03
2019-01-23T20:51:22.922Z,34.67
2019-01-23T20:53:53.069Z,35.90
2019-01-23T20:56:23.160Z,30.87
2019-01-23T20:58:53.408Z,28.60
2019-01-23T21:01:23.843Z,30.82
2019-01-23T21:03:54.015Z,35.70
2019-01-23T21:06:24.130Z,32.80
2019-01-23T21:08:54.379Z,33.00
2019-01-23T21:11:24.875Z,33.78
2019-01-23T21:13:55.083Z,30.30
2019-01-23T21:16:25.375Z,28.20
2019-01-23T21:18:55.937Z,28.20
2019-01-23T21:21:26.111Z,28.63
2019-01-23T21:23:56.211Z,28.67
2019-01-23T21:26:26.341Z,28.27
2019-01-23T21:28:56.514Z,27.17
2019-01-23T21:31:27.932Z,24.50
2019-01-23T21:33:58.244Z,30.20
2019-01-23T21:36:28.491Z,29.10
2019-01-23T21:38:58.981Z,29.82
2019-01-23T21:41:29.987Z,31.37
2019-01-23T21:44:00.260Z,36.37
2019-01-23T21:46:31.411Z,30.48
2019-01-23T21:49:01.729Z,28.90
2019-01-23T21:51:32.207Z,32.20
2019-01-23T21:54:02.407Z,28.70
2019-01-23T21:56:32.556Z,27.87
2019-01-23T21:59:02.998Z,28.10
2019-01-23T22:01:33.386Z,30.80
2019-01-23T22:04:03.682Z,28.80
2019-01-23T22:06:34.166Z,28.92
2019-01-23T22:09:06.006Z,27.30
2019-01-23T22:11:43.476Z,24.32
2019-01-23T22:14:10.253Z,29.07
2019-01-23T22:16:41.409Z,25.40
2019-01-23T22:19:11.630Z,26.60
2019-01-23T22:21:42.328Z,27.07
2019-01-23T22:24:12.482Z,26.30
2019-01-23T22:26:43.559Z,24.83
2019-01-23T22:29:15.306Z,26.83
2019-01-23T22:31:45.643Z,26.07
2019-01-23T22:34:16.063Z,28.05
2019-01-23T22:36:46.386Z,24.60
2019-01-23T22:39:16.519Z,28.30
2019-01-23T22:41:46.712Z,25.00
2019-01-23T22:44:17.105Z,27.27
2019-01-23T22:46:47.523Z,30.23
2019-01-23T22:49:17.749Z,27.63
2019-01-23T22:51:47.932Z,26.33
2019-01-23T22:54:18.317Z,26.17
2019-01-23T22:56:48.544Z,27.73
2019-01-23T22:59:18.734Z,25.20
2019-01-23T23:01:48.920Z,27.40
2019-01-23T23:04:19.343Z,25.32
2019-01-23T23:06:49.579Z,25.60
2019-01-23T23:09:19.762Z,28.77
2019-01-23T23:11:50.057Z,23.80
2019-01-23T23:14:20.427Z,25.70
2019-01-23T23:16:50.540Z,27.30
2019-01-23T23:19:20.762Z,28.93
2019-01-23T23:21:51.007Z,28.53
2019-01-23T23:24:21.347Z,25.95
2019-01-23T23:26:51.601Z,29.80
2019-01-23T23:29:23.622Z,29.87
2019-01-23T23:31:59.499Z,27.80
2019-01-23T23:34:31.957Z,28.17
2019-01-23T23:37:02.443Z,26.85
2019-01-23T23:39:32.696Z,26.80
2019-01-23T23:42:02.747Z,24.57
2019-01-23T23:44:32.889Z,27.80
2019-01-23T23:47:06.049Z,28.50
2019-01-23T23:49:36.467Z,25.62
2019-01-23T23:52:06.646Z,28.63
2019-01-23T23:54:37.010Z,27.13
2019-01-23T23:57:07.716Z,27.20
2019-01-23T23:59:37.977Z,25.73
